sensor_id;sensor_type;location;lat;lon;timestamp;temperature;humidity
24444;DHT22;13346;50.984;5.822;2022-10-18T00:01:27;14.60;99.90
24444;DHT22;13346;50.984;5.822;2022-10-18T00:03:55;14.60;99.90
24444;DHT22;13346;50.984;5.822;2022-10-18T00:06:22;14.60;99.90
24444;DHT22;13346;50.984;5.822;2022-10-18T00:08:49;14.70;99.90
24444;DHT22;13346;50.984;5.822;2022-10-18T00:11:18;14.80;99.90
24444;DHT22;13346;50.984;5.822;2022-10-18T00:13:45;14.70;99.90
24444;DHT22;13346;50.984;5.822;2022-10-18T00:16:14;14.70;99.90
24444;DHT22;13346;50.984;5.822;2022-10-18T00:18:42;14.70;99.90
24444;DHT22;13346;50.984;5.822;2022-10-18T00:21:11;14.70;99.90
24444;DHT22;13346;50.984;5.822;2022-10-18T00:23:39;14.70;99.90
24444;DHT22;13346;50.984;5.822;2022-10-18T00:26:11;14.70;99.90
24444;DHT22;13346;50.984;5.822;2022-10-18T00:28:41;14.70;99.90
24444;DHT22;13346;50.984;5.822;2022-10-18T00:31:10;14.60;99.90
24444;DHT22;13346;50.984;5.822;2022-10-18T00:33:37;14.60;99.90
24444;DHT22;13346;50.984;5.822;2022-10-18T00:36:05;14.60;99.90
24444;DHT22;13346;50.984;5.822;2022-10-18T00:38:32;14.60;99.90
24444;DHT22;13346;50.984;5.822;2022-10-18T00:40:59;14.60;99.90
24444;DHT22;13346;50.984;5.822;2022-10-18T00:43:26;14.60;99.90
24444;DHT22;13346;50.984;5.822;2022-10-18T00:45:55;14.70;99.90
24444;DHT22;13346;50.984;5.822;2022-10-18T00:48:23;14.60;99.90
24444;DHT22;13346;50.984;5.822;2022-10-18T00:50:51;14.70;99.90
24444;DHT22;13346;50.984;5.822;2022-10-18T00:53:20;14.60;99.90
24444;DHT22;13346;50.984;5.822;2022-10-18T00:55:48;14.60;99.90
24444;DHT22;13346;50.984;5.822;2022-10-18T00:58:16;14.60;99.90
24444;DHT22;13346;50.984;5.822;2022-10-18T01:00:45;14.60;99.90
24444;DHT22;13346;50.984;5.822;2022-10-18T01:03:13;14.50;99.90
24444;DHT22;13346;50.984;5.822;2022-10-18T01:05:43;14.50;99.90
24444;DHT22;13346;50.984;5.822;2022-10-18T01:11:31;14.60;99.90
24444;DHT22;13346;50.984;5.822;2022-10-18T01:14:08;14.70;99.90
24444;DHT22;13346;50.984;5.822;2022-10-18T01:16:43;14.80;99.90
24444;DHT22;13346;50.984;5.822;2022-10-18T01:19:32;14.90;99.90
24444;DHT22;13346;50.984;5.822;2022-10-18T01:22:10;15.00;99.90
24444;DHT22;13346;50.984;5.822;2022-10-18T01:24:56;15.10;99.90
24444;DHT22;13346;50.984;5.822;2022-10-18T01:27:33;15.20;99.90
24444;DHT22;13346;50.984;5.822;2022-10-18T01:33:24;15.30;99.90
24444;DHT22;13346;50.984;5.822;2022-10-18T01:35:56;15.30;99.90
24444;DHT22;13346;50.984;5.822;2022-10-18T01:38:25;15.30;99.90
24444;DHT22;13346;50.984;5.822;2022-10-18T01:40:55;15.30;99.90
24444;DHT22;13346;50.984;5.822;2022-10-18T01:43:24;15.30;99.90
24444;DHT22;13346;50.984;5.822;2022-10-18T01:45:54;15.30;99.90
24444;DHT22;13346;50.984;5.822;2022-10-18T01:48:23;15.30;99.90
24444;DHT22;13346;50.984;5.822;2022-10-18T01:50:51;15.30;99.90
24444;DHT22;13346;50.984;5.822;2022-10-18T01:53:29;15.30;99.90
24444;DHT22;13346;50.984;5.822;2022-10-18T01:56:13;15.30;99.90
24444;DHT22;13346;50.984;5.822;2022-10-18T01:58:48;15.30;99.90
24444;DHT22;13346;50.984;5.822;2022-10-18T02:01:28;15.30;99.90
24444;DHT22;13346;50.984;5.822;2022-10-18T02:04:04;15.30;99.90
24444;DHT22;13346;50.984;5.822;2022-10-18T02:06:37;15.30;99.90
24444;DHT22;13346;50.984;5.822;2022-10-18T02:09:11;15.30;99.90
24444;DHT22;13346;50.984;5.822;2022-10-18T02:11:40;15.30;99.90
24444;DHT22;13346;50.984;5.822;2022-10-18T02:14:12;15.30;99.90
24444;DHT22;13346;50.984;5.822;2022-10-18T02:16:43;15.30;99.90
24444;DHT22;13346;50.984;5.822;2022-10-18T02:19:16;15.30;99.90
24444;DHT22;13346;50.984;5.822;2022-10-18T02:21:45;15.30;99.90
24444;DHT22;13346;50.984;5.822;2022-10-18T02:24:14;15.40;99.90
24444;DHT22;13346;50.984;5.822;2022-10-18T02:26:43;15.40;99.90
24444;DHT22;13346;50.984;5.822;2022-10-18T02:29:10;15.40;99.90
24444;DHT22;13346;50.984;5.822;2022-10-18T02:31:43;15.40;99.90
24444;DHT22;13346;50.984;5.822;2022-10-18T02:34:17;15.40;99.90
24444;DHT22;13346;50.984;5.822;2022-10-18T02:36:47;15.40;99.90
24444;DHT22;13346;50.984;5.822;2022-10-18T02:39:19;15.40;99.90
24444;DHT22;13346;50.984;5.822;2022-10-18T02:41:47;15.40;99.90
24444;DHT22;13346;50.984;5.822;2022-10-18T02:44:14;15.50;99.90
24444;DHT22;13346;50.984;5.822;2022-10-18T02:46:43;15.50;99.90
24444;DHT22;13346;50.984;5.822;2022-10-18T02:49:10;15.50;99.90
24444;DHT22;13346;50.984;5.822;2022-10-18T02:51:38;15.50;99.90
24444;DHT22;13346;50.984;5.822;2022-10-18T02:54:05;15.50;99.90
24444;DHT22;13346;50.984;5.822;2022-10-18T02:56:33;15.50;99.90
24444;DHT22;13346;50.984;5.822;2022-10-18T02:59:00;15.50;99.90
24444;DHT22;13346;50.984;5.822;2022-10-18T03:01:29;15.50;99.90
24444;DHT22;13346;50.984;5.822;2022-10-18T03:03:59;15.50;99.90
24444;DHT22;13346;50.984;5.822;2022-10-18T03:06:26;15.60;99.90
24444;DHT22;13346;50.984;5.822;2022-10-18T03:08:53;15.60;99.90
24444;DHT22;13346;50.984;5.822;2022-10-18T03:11:21;15.60;99.90
24444;DHT22;13346;50.984;5.822;2022-10-18T03:13:48;15.60;99.90
24444;DHT22;13346;50.984;5.822;2022-10-18T03:16:16;15.60;99.90
24444;DHT22;13346;50.984;5.822;2022-10-18T03:18:43;15.60;99.90
24444;DHT22;13346;50.984;5.822;2022-10-18T03:21:12;15.50;99.90
24444;DHT22;13346;50.984;5.822;2022-10-18T03:23:39;15.50;99.90
24444;DHT22;13346;50.984;5.822;2022-10-18T03:26:07;15.60;99.90
24444;DHT22;13346;50.984;5.822;2022-10-18T03:28:34;15.60;99.90
24444;DHT22;13346;50.984;5.822;2022-10-18T03:31:02;15.60;99.90
24444;DHT22;13346;50.984;5.822;2022-10-18T03:33:30;15.60;99.90
24444;DHT22;13346;50.984;5.822;2022-10-18T03:35:57;15.60;99.90
24444;DHT22;13346;50.984;5.822;2022-10-18T03:38:26;15.60;99.90
24444;DHT22;13346;50.984;5.822;2022-10-18T03:40:53;15.60;99.90
24444;DHT22;13346;50.984;5.822;2022-10-18T03:43:20;15.60;99.90
24444;DHT22;13346;50.984;5.822;2022-10-18T03:45:48;15.50;99.90
24444;DHT22;13346;50.984;5.822;2022-10-18T03:48:15;15.50;99.90
24444;DHT22;13346;50.984;5.822;2022-10-18T03:50:42;15.50;99.90
24444;DHT22;13346;50.984;5.822;2022-10-18T03:53:09;15.50;99.90
24444;DHT22;13346;50.984;5.822;2022-10-18T03:55:38;15.50;99.90
24444;DHT22;13346;50.984;5.822;2022-10-18T03:58:05;15.50;99.90
24444;DHT22;13346;50.984;5.822;2022-10-18T04:00:33;15.50;99.90
24444;DHT22;13346;50.984;5.822;2022-10-18T04:03:00;15.50;99.90
24444;DHT22;13346;50.984;5.822;2022-10-18T04:05:27;15.50;99.90
24444;DHT22;13346;50.984;5.822;2022-10-18T04:07:55;15.40;99.90
24444;DHT22;13346;50.984;5.822;2022-10-18T04:10:22;15.40;99.90
24444;DHT22;13346;50.984;5.822;2022-10-18T04:12:51;15.40;99.90
24444;DHT22;13346;50.984;5.822;2022-10-18T04:15:18;15.40;99.90
24444;DHT22;13346;50.984;5.822;2022-10-18T04:17:46;15.40;99.90
24444;DHT22;13346;50.984;5.822;2022-10-18T04:20:13;15.40;99.90
24444;DHT22;13346;50.984;5.822;2022-10-18T04:22:40;15.30;99.90
24444;DHT22;13346;50.984;5.822;2022-10-18T04:25:07;15.40;99.90
24444;DHT22;13346;50.984;5.822;2022-10-18T04:27:35;15.30;99.90
24444;DHT22;13346;50.984;5.822;2022-10-18T04:30:04;15.30;99.90
24444;DHT22;13346;50.984;5.822;2022-10-18T04:32:31;15.30;99.90
24444;DHT22;13346;50.984;5.822;2022-10-18T04:35:00;15.20;99.90
24444;DHT22;13346;50.984;5.822;2022-10-18T04:37:27;15.20;99.90
24444;DHT22;13346;50.984;5.822;2022-10-18T04:39:54;15.20;99.90
24444;DHT22;13346;50.984;5.822;2022-10-18T04:42:22;15.20;99.90
24444;DHT22;13346;50.984;5.822;2022-10-18T04:44:49;15.10;99.90
24444;DHT22;13346;50.984;5.822;2022-10-18T04:47:18;15.10;99.90
24444;DHT22;13346;50.984;5.822;2022-10-18T04:49:45;15.00;99.90
24444;DHT22;13346;50.984;5.822;2022-10-18T04:52:12;15.00;99.90
24444;DHT22;13346;50.984;5.822;2022-10-18T04:54:40;15.00;99.90
24444;DHT22;13346;50.984;5.822;2022-10-18T04:57:07;15.00;99.90
24444;DHT22;13346;50.984;5.822;2022-10-18T04:59:34;14.90;99.90
24444;DHT22;13346;50.984;5.822;2022-10-18T05:02:02;14.90;99.90
24444;DHT22;13346;50.984;5.822;2022-10-18T05:04:31;14.90;99.90
24444;DHT22;13346;50.984;5.822;2022-10-18T05:06:58;14.90;99.90
24444;DHT22;13346;50.984;5.822;2022-10-18T05:09:26;14.90;99.90
24444;DHT22;13346;50.984;5.822;2022-10-18T05:11:53;14.90;99.90
24444;DHT22;13346;50.984;5.822;2022-10-18T05:14:20;14.90;99.90
24444;DHT22;13346;50.984;5.822;2022-10-18T05:16:47;14.80;99.90
24444;DHT22;13346;50.984;5.822;2022-10-18T05:19:14;14.80;99.90
24444;DHT22;13346;50.984;5.822;2022-10-18T05:21:43;14.80;99.90
24444;DHT22;13346;50.984;5.822;2022-10-18T05:24:10;14.80;99.90
24444;DHT22;13346;50.984;5.822;2022-10-18T05:26:38;14.80;99.90
24444;DHT22;13346;50.984;5.822;2022-10-18T05:29:05;14.80;99.90
24444;DHT22;13346;50.984;5.822;2022-10-18T05:31:32;14.90;99.90
24444;DHT22;13346;50.984;5.822;2022-10-18T05:33:59;14.80;99.90
24444;DHT22;13346;50.984;5.822;2022-10-18T05:36:27;14.80;99.90
24444;DHT22;13346;50.984;5.822;2022-10-18T05:38:56;14.80;99.90
24444;DHT22;13346;50.984;5.822;2022-10-18T05:41:23;14.80;99.90
24444;DHT22;13346;50.984;5.822;2022-10-18T05:43:50;14.70;99.90
24444;DHT22;13346;50.984;5.822;2022-10-18T05:46:17;14.70;99.90
24444;DHT22;13346;50.984;5.822;2022-10-18T05:48:48;14.70;99.90
24444;DHT22;13346;50.984;5.822;2022-10-18T05:51:16;14.70;99.90
24444;DHT22;13346;50.984;5.822;2022-10-18T05:53:43;14.70;99.90
24444;DHT22;13346;50.984;5.822;2022-10-18T05:56:11;14.70;99.90
24444;DHT22;13346;50.984;5.822;2022-10-18T05:58:39;14.70;99.90
24444;DHT22;13346;50.984;5.822;2022-10-18T06:01:07;14.70;99.90
24444;DHT22;13346;50.984;5.822;2022-10-18T06:03:35;14.80;99.90
24444;DHT22;13346;50.984;5.822;2022-10-18T06:06:04;14.80;99.90
24444;DHT22;13346;50.984;5.822;2022-10-18T06:08:31;14.80;99.90
24444;DHT22;13346;50.984;5.822;2022-10-18T06:10:59;14.80;99.90
24444;DHT22;13346;50.984;5.822;2022-10-18T06:13:27;14.80;99.90
24444;DHT22;13346;50.984;5.822;2022-10-18T06:15:55;14.80;99.90
24444;DHT22;13346;50.984;5.822;2022-10-18T06:18:23;14.80;99.90
24444;DHT22;13346;50.984;5.822;2022-10-18T06:20:56;14.70;99.90
24444;DHT22;13346;50.984;5.822;2022-10-18T06:23:23;14.80;99.90
24444;DHT22;13346;50.984;5.822;2022-10-18T06:25:51;14.80;99.90
24444;DHT22;13346;50.984;5.822;2022-10-18T06:28:18;14.80;99.90
24444;DHT22;13346;50.984;5.822;2022-10-18T06:30:46;14.80;99.90
24444;DHT22;13346;50.984;5.822;2022-10-18T06:33:14;14.70;99.90
24444;DHT22;13346;50.984;5.822;2022-10-18T06:35:41;14.80;99.90
24444;DHT22;13346;50.984;5.822;2022-10-18T06:38:08;14.90;99.90
24444;DHT22;13346;50.984;5.822;2022-10-18T06:40:35;14.90;99.90
24444;DHT22;13346;50.984;5.822;2022-10-18T06:43:03;14.90;99.90
24444;DHT22;13346;50.984;5.822;2022-10-18T06:45:32;14.90;99.90
24444;DHT22;13346;50.984;5.822;2022-10-18T06:48:00;14.90;99.90
24444;DHT22;13346;50.984;5.822;2022-10-18T06:50:27;14.90;99.90
24444;DHT22;13346;50.984;5.822;2022-10-18T06:52:54;15.00;99.90
24444;DHT22;13346;50.984;5.822;2022-10-18T06:55:22;14.90;99.90
24444;DHT22;13346;50.984;5.822;2022-10-18T06:57:49;14.90;99.90
24444;DHT22;13346;50.984;5.822;2022-10-18T07:00:16;14.90;99.90
24444;DHT22;13346;50.984;5.822;2022-10-18T07:02:44;14.90;99.90
24444;DHT22;13346;50.984;5.822;2022-10-18T07:05:12;15.00;99.90
24444;DHT22;13346;50.984;5.822;2022-10-18T07:07:39;15.10;99.90
24444;DHT22;13346;50.984;5.822;2022-10-18T07:10:07;15.20;99.90
24444;DHT22;13346;50.984;5.822;2022-10-18T07:12:34;15.20;99.90
24444;DHT22;13346;50.984;5.822;2022-10-18T07:15:02;15.20;99.90
24444;DHT22;13346;50.984;5.822;2022-10-18T07:17:29;15.30;99.90
24444;DHT22;13346;50.984;5.822;2022-10-18T07:19:56;15.20;99.90
24444;DHT22;13346;50.984;5.822;2022-10-18T07:22:25;15.30;99.90
24444;DHT22;13346;50.984;5.822;2022-10-18T07:24:52;15.30;99.90
24444;DHT22;13346;50.984;5.822;2022-10-18T07:27:19;15.30;99.90
24444;DHT22;13346;50.984;5.822;2022-10-18T07:29:46;15.40;99.90
24444;DHT22;13346;50.984;5.822;2022-10-18T07:32:14;15.60;99.90
24444;DHT22;13346;50.984;5.822;2022-10-18T07:34:41;15.70;99.90
24444;DHT22;13346;50.984;5.822;2022-10-18T07:37:09;15.70;99.90
24444;DHT22;13346;50.984;5.822;2022-10-18T07:39:37;15.80;99.90
24444;DHT22;13346;50.984;5.822;2022-10-18T07:42:04;15.70;99.90
24444;DHT22;13346;50.984;5.822;2022-10-18T07:44:32;15.80;99.90
24444;DHT22;13346;50.984;5.822;2022-10-18T07:46:59;15.90;99.90
24444;DHT22;13346;50.984;5.822;2022-10-18T07:49:26;16.00;99.90
24444;DHT22;13346;50.984;5.822;2022-10-18T07:51:53;15.90;99.90
24444;DHT22;13346;50.984;5.822;2022-10-18T07:54:20;15.80;99.90
24444;DHT22;13346;50.984;5.822;2022-10-18T07:56:49;15.80;99.90
24444;DHT22;13346;50.984;5.822;2022-10-18T07:59:16;15.70;99.90
24444;DHT22;13346;50.984;5.822;2022-10-18T08:01:43;15.60;99.90
24444;DHT22;13346;50.984;5.822;2022-10-18T08:04:11;15.70;99.90
24444;DHT22;13346;50.984;5.822;2022-10-18T08:06:38;15.60;99.90
24444;DHT22;13346;50.984;5.822;2022-10-18T08:09:05;15.70;99.90
24444;DHT22;13346;50.984;5.822;2022-10-18T08:11:32;15.60;99.90
24444;DHT22;13346;50.984;5.822;2022-10-18T08:14:01;15.60;99.90
24444;DHT22;13346;50.984;5.822;2022-10-18T08:16:29;15.60;99.90
24444;DHT22;13346;50.984;5.822;2022-10-18T08:18:56;15.60;99.90
24444;DHT22;13346;50.984;5.822;2022-10-18T08:21:24;15.60;99.90
24444;DHT22;13346;50.984;5.822;2022-10-18T08:23:51;15.60;99.90
24444;DHT22;13346;50.984;5.822;2022-10-18T08:26:20;15.60;99.90
24444;DHT22;13346;50.984;5.822;2022-10-18T08:28:48;15.60;99.90
24444;DHT22;13346;50.984;5.822;2022-10-18T08:31:17;15.60;99.90
24444;DHT22;13346;50.984;5.822;2022-10-18T08:33:45;15.70;99.90
24444;DHT22;13346;50.984;5.822;2022-10-18T08:36:13;15.70;99.90
24444;DHT22;13346;50.984;5.822;2022-10-18T08:38:42;15.60;99.90
24444;DHT22;13346;50.984;5.822;2022-10-18T08:41:34;15.60;99.90
24444;DHT22;13346;50.984;5.822;2022-10-18T08:44:08;15.50;99.90
24444;DHT22;13346;50.984;5.822;2022-10-18T08:46:43;15.50;99.90
24444;DHT22;13346;50.984;5.822;2022-10-18T08:49:18;15.50;99.90
24444;DHT22;13346;50.984;5.822;2022-10-18T08:51:48;15.70;99.90
24444;DHT22;13346;50.984;5.822;2022-10-18T08:54:23;15.80;99.90
24444;DHT22;13346;50.984;5.822;2022-10-18T08:56:58;15.60;99.90
24444;DHT22;13346;50.984;5.822;2022-10-18T08:59:30;15.80;99.90
24444;DHT22;13346;50.984;5.822;2022-10-18T09:02:09;15.70;99.90
24444;DHT22;13346;50.984;5.822;2022-10-18T09:04:45;15.60;99.90
24444;DHT22;13346;50.984;5.822;2022-10-18T09:07:27;15.40;99.90
24444;DHT22;13346;50.984;5.822;2022-10-18T09:10:11;15.50;99.90
24444;DHT22;13346;50.984;5.822;2022-10-18T09:12:55;15.50;99.90
24444;DHT22;13346;50.984;5.822;2022-10-18T09:15:32;15.60;99.90
24444;DHT22;13346;50.984;5.822;2022-10-18T09:18:12;15.70;99.90
24444;DHT22;13346;50.984;5.822;2022-10-18T09:20:49;15.70;99.90
24444;DHT22;13346;50.984;5.822;2022-10-18T09:23:19;15.60;99.90
24444;DHT22;13346;50.984;5.822;2022-10-18T09:25:49;15.60;99.90
24444;DHT22;13346;50.984;5.822;2022-10-18T09:28:29;15.60;99.90
24444;DHT22;13346;50.984;5.822;2022-10-18T09:31:04;15.70;99.90
24444;DHT22;13346;50.984;5.822;2022-10-18T09:33:42;15.80;99.90
24444;DHT22;13346;50.984;5.822;2022-10-18T09:36:17;15.80;99.90
24444;DHT22;13346;50.984;5.822;2022-10-18T09:38:48;15.90;99.90
24444;DHT22;13346;50.984;5.822;2022-10-18T09:41:21;16.10;99.90
24444;DHT22;13346;50.984;5.822;2022-10-18T09:43:53;16.10;99.90
24444;DHT22;13346;50.984;5.822;2022-10-18T09:46:25;16.30;99.90
24444;DHT22;13346;50.984;5.822;2022-10-18T09:48:57;16.50;99.90
24444;DHT22;13346;50.984;5.822;2022-10-18T09:51:29;16.40;99.90
24444;DHT22;13346;50.984;5.822;2022-10-18T09:54:19;16.20;99.90
24444;DHT22;13346;50.984;5.822;2022-10-18T09:56:49;16.00;99.90
24444;DHT22;13346;50.984;5.822;2022-10-18T09:59:29;15.90;99.90
24444;DHT22;13346;50.984;5.822;2022-10-18T10:01:57;16.00;99.90
24444;DHT22;13346;50.984;5.822;2022-10-18T10:04:26;16.10;99.90
24444;DHT22;13346;50.984;5.822;2022-10-18T10:06:55;16.20;99.90
24444;DHT22;13346;50.984;5.822;2022-10-18T10:09:26;16.20;99.90
24444;DHT22;13346;50.984;5.822;2022-10-18T10:11:54;16.30;99.90
24444;DHT22;13346;50.984;5.822;2022-10-18T10:14:23;16.30;99.90
24444;DHT22;13346;50.984;5.822;2022-10-18T10:16:53;16.30;99.90
24444;DHT22;13346;50.984;5.822;2022-10-18T10:19:27;16.20;99.90
24444;DHT22;13346;50.984;5.822;2022-10-18T10:22:01;16.10;99.90
24444;DHT22;13346;50.984;5.822;2022-10-18T10:24:36;15.90;99.90
24444;DHT22;13346;50.984;5.822;2022-10-18T10:27:15;15.80;99.90
24444;DHT22;13346;50.984;5.822;2022-10-18T10:29:54;15.80;99.90
24444;DHT22;13346;50.984;5.822;2022-10-18T10:32:25;15.80;99.90
24444;DHT22;13346;50.984;5.822;2022-10-18T10:34:54;15.80;99.90
24444;DHT22;13346;50.984;5.822;2022-10-18T10:37:33;15.80;99.90
24444;DHT22;13346;50.984;5.822;2022-10-18T10:40:15;15.80;99.90
24444;DHT22;13346;50.984;5.822;2022-10-18T10:43:04;15.70;99.90
24444;DHT22;13346;50.984;5.822;2022-10-18T10:45:34;15.80;99.90
24444;DHT22;13346;50.984;5.822;2022-10-18T10:48:07;15.80;99.90
24444;DHT22;13346;50.984;5.822;2022-10-18T10:50:53;15.80;99.90
24444;DHT22;13346;50.984;5.822;2022-10-18T10:53:36;15.80;99.90
24444;DHT22;13346;50.984;5.822;2022-10-18T10:56:05;16.00;99.90
24444;DHT22;13346;50.984;5.822;2022-10-18T10:58:39;15.90;99.90
24444;DHT22;13346;50.984;5.822;2022-10-18T11:01:23;16.00;99.90
24444;DHT22;13346;50.984;5.822;2022-10-18T11:03:52;16.40;99.90
24444;DHT22;13346;50.984;5.822;2022-10-18T11:06:37;16.60;99.90
24444;DHT22;13346;50.984;5.822;2022-10-18T11:09:12;17.20;99.90
24444;DHT22;13346;50.984;5.822;2022-10-18T11:11:45;17.80;99.90
24444;DHT22;13346;50.984;5.822;2022-10-18T11:14:21;18.30;99.90
24444;DHT22;13346;50.984;5.822;2022-10-18T11:16:55;19.20;99.90
24444;DHT22;13346;50.984;5.822;2022-10-18T11:19:33;19.70;99.90
24444;DHT22;13346;50.984;5.822;2022-10-18T11:22:08;20.60;99.90
24444;DHT22;13346;50.984;5.822;2022-10-18T11:24:37;21.70;99.90
24444;DHT22;13346;50.984;5.822;2022-10-18T11:27:07;22.10;99.90
24444;DHT22;13346;50.984;5.822;2022-10-18T11:29:50;21.50;99.90
24444;DHT22;13346;50.984;5.822;2022-10-18T11:32:27;19.70;99.90
24444;DHT22;13346;50.984;5.822;2022-10-18T11:35:06;18.70;99.90
24444;DHT22;13346;50.984;5.822;2022-10-18T11:37:52;18.50;99.90
24444;DHT22;13346;50.984;5.822;2022-10-18T11:40:38;18.70;99.90
24444;DHT22;13346;50.984;5.822;2022-10-18T11:43:14;18.50;99.90
24444;DHT22;13346;50.984;5.822;2022-10-18T11:45:53;18.50;99.90
24444;DHT22;13346;50.984;5.822;2022-10-18T11:48:39;18.30;99.90
24444;DHT22;13346;50.984;5.822;2022-10-18T11:51:16;18.50;99.90
24444;DHT22;13346;50.984;5.822;2022-10-18T11:53:56;18.60;99.90
24444;DHT22;13346;50.984;5.822;2022-10-18T11:56:32;18.50;99.90
24444;DHT22;13346;50.984;5.822;2022-10-18T11:59:16;18.80;99.90
24444;DHT22;13346;50.984;5.822;2022-10-18T12:01:54;19.10;99.90
24444;DHT22;13346;50.984;5.822;2022-10-18T12:04:28;19.20;99.90
24444;DHT22;13346;50.984;5.822;2022-10-18T12:06:59;18.90;99.90
24444;DHT22;13346;50.984;5.822;2022-10-18T12:09:35;18.40;99.90
24444;DHT22;13346;50.984;5.822;2022-10-18T12:12:13;18.20;99.90
24444;DHT22;13346;50.984;5.822;2022-10-18T12:14:45;18.70;99.90
24444;DHT22;13346;50.984;5.822;2022-10-18T12:17:21;18.90;99.90
24444;DHT22;13346;50.984;5.822;2022-10-18T12:19:52;19.10;99.90
24444;DHT22;13346;50.984;5.822;2022-10-18T12:22:26;18.80;99.90
24444;DHT22;13346;50.984;5.822;2022-10-18T12:24:55;18.90;99.90
24444;DHT22;13346;50.984;5.822;2022-10-18T12:27:31;19.10;99.90
24444;DHT22;13346;50.984;5.822;2022-10-18T12:30:03;18.60;99.90
24444;DHT22;13346;50.984;5.822;2022-10-18T12:32:34;18.80;99.90
24444;DHT22;13346;50.984;5.822;2022-10-18T12:35:05;18.70;99.90
24444;DHT22;13346;50.984;5.822;2022-10-18T12:38:11;19.00;99.90
24444;DHT22;13346;50.984;5.822;2022-10-18T12:40:45;18.60;99.90
24444;DHT22;13346;50.984;5.822;2022-10-18T12:43:17;18.40;99.90
24444;DHT22;13346;50.984;5.822;2022-10-18T12:45:49;18.40;99.90
24444;DHT22;13346;50.984;5.822;2022-10-18T12:48:29;18.80;99.90
24444;DHT22;13346;50.984;5.822;2022-10-18T12:51:00;19.00;99.90
24444;DHT22;13346;50.984;5.822;2022-10-18T12:53:30;18.90;99.90
24444;DHT22;13346;50.984;5.822;2022-10-18T12:56:32;19.10;99.90
24444;DHT22;13346;50.984;5.822;2022-10-18T12:59:38;18.90;99.90
24444;DHT22;13346;50.984;5.822;2022-10-18T13:02:19;18.40;99.90
24444;DHT22;13346;50.984;5.822;2022-10-18T13:04:47;18.60;99.90
24444;DHT22;13346;50.984;5.822;2022-10-18T13:07:20;18.70;99.90
24444;DHT22;13346;50.984;5.822;2022-10-18T13:13:41;18.50;99.90
24444;DHT22;13346;50.984;5.822;2022-10-18T13:16:24;18.70;99.90
24444;DHT22;13346;50.984;5.822;2022-10-18T13:18:55;18.80;99.90
24444;DHT22;13346;50.984;5.822;2022-10-18T13:21:32;18.60;99.90
24444;DHT22;13346;50.984;5.822;2022-10-18T13:24:18;19.00;99.90
24444;DHT22;13346;50.984;5.822;2022-10-18T13:27:14;18.70;99.90
24444;DHT22;13346;50.984;5.822;2022-10-18T13:32:49;18.80;99.90
24444;DHT22;13346;50.984;5.822;2022-10-18T13:35:41;18.50;99.90
24444;DHT22;13346;50.984;5.822;2022-10-18T13:41:18;18.80;99.90
24444;DHT22;13346;50.984;5.822;2022-10-18T13:43:57;18.40;99.90
24444;DHT22;13346;50.984;5.822;2022-10-18T13:50:10;18.20;99.90
24444;DHT22;13346;50.984;5.822;2022-10-18T13:55:51;18.30;99.90
24444;DHT22;13346;50.984;5.822;2022-10-18T13:58:25;17.80;99.90
24444;DHT22;13346;50.984;5.822;2022-10-18T14:01:04;17.60;99.90
24444;DHT22;13346;50.984;5.822;2022-10-18T14:06:26;18.20;99.90
24444;DHT22;13346;50.984;5.822;2022-10-18T14:08:59;18.60;99.90
24444;DHT22;13346;50.984;5.822;2022-10-18T14:11:31;18.40;99.90
24444;DHT22;13346;50.984;5.822;2022-10-18T14:14:05;18.60;99.90
24444;DHT22;13346;50.984;5.822;2022-10-18T14:16:42;18.80;99.90
24444;DHT22;13346;50.984;5.822;2022-10-18T14:19:20;19.40;99.90
24444;DHT22;13346;50.984;5.822;2022-10-18T14:21:56;19.20;99.90
24444;DHT22;13346;50.984;5.822;2022-10-18T14:24:25;18.80;99.90
24444;DHT22;13346;50.984;5.822;2022-10-18T14:27:11;18.60;99.90
24444;DHT22;13346;50.984;5.822;2022-10-18T14:29:39;17.90;99.90
24444;DHT22;13346;50.984;5.822;2022-10-18T14:32:08;18.20;99.90
24444;DHT22;13346;50.984;5.822;2022-10-18T14:34:38;18.80;99.90
24444;DHT22;13346;50.984;5.822;2022-10-18T14:37:20;18.90;99.90
24444;DHT22;13346;50.984;5.822;2022-10-18T14:39:47;19.30;99.90
24444;DHT22;13346;50.984;5.822;2022-10-18T14:42:19;19.00;99.90
24444;DHT22;13346;50.984;5.822;2022-10-18T14:44:47;18.40;99.90
24444;DHT22;13346;50.984;5.822;2022-10-18T14:47:19;18.90;99.90
24444;DHT22;13346;50.984;5.822;2022-10-18T14:49:48;18.90;99.90
24444;DHT22;13346;50.984;5.822;2022-10-18T14:52:18;19.10;99.90
24444;DHT22;13346;50.984;5.822;2022-10-18T14:54:46;18.90;99.90
24444;DHT22;13346;50.984;5.822;2022-10-18T14:57:19;18.60;99.90
24444;DHT22;13346;50.984;5.822;2022-10-18T14:59:49;18.50;99.90
24444;DHT22;13346;50.984;5.822;2022-10-18T15:02:21;18.20;99.90
24444;DHT22;13346;50.984;5.822;2022-10-18T15:04:56;18.00;99.90
24444;DHT22;13346;50.984;5.822;2022-10-18T15:07:24;18.00;99.90
24444;DHT22;13346;50.984;5.822;2022-10-18T15:09:56;18.10;99.90
24444;DHT22;13346;50.984;5.822;2022-10-18T15:12:24;18.10;99.90
24444;DHT22;13346;50.984;5.822;2022-10-18T15:14:52;17.90;99.90
24444;DHT22;13346;50.984;5.822;2022-10-18T15:17:23;17.90;99.90
24444;DHT22;13346;50.984;5.822;2022-10-18T15:19:57;17.70;99.90
24444;DHT22;13346;50.984;5.822;2022-10-18T15:22:26;17.50;99.90
24444;DHT22;13346;50.984;5.822;2022-10-18T15:25:13;17.30;99.90
24444;DHT22;13346;50.984;5.822;2022-10-18T15:27:42;17.20;99.90
24444;DHT22;13346;50.984;5.822;2022-10-18T15:30:16;17.10;99.90
24444;DHT22;13346;50.984;5.822;2022-10-18T15:32:49;17.10;99.90
24444;DHT22;13346;50.984;5.822;2022-10-18T15:35:21;17.00;99.90
24444;DHT22;13346;50.984;5.822;2022-10-18T15:37:49;16.90;99.90
24444;DHT22;13346;50.984;5.822;2022-10-18T15:40:35;16.80;99.90
24444;DHT22;13346;50.984;5.822;2022-10-18T15:43:05;16.90;99.90
24444;DHT22;13346;50.984;5.822;2022-10-18T15:45:36;16.80;99.90
24444;DHT22;13346;50.984;5.822;2022-10-18T15:48:19;16.70;99.90
24444;DHT22;13346;50.984;5.822;2022-10-18T15:50:50;16.70;99.90
24444;DHT22;13346;50.984;5.822;2022-10-18T15:53:41;16.70;99.90
24444;DHT22;13346;50.984;5.822;2022-10-18T15:56:30;16.50;99.90
24444;DHT22;13346;50.984;5.822;2022-10-18T15:59:00;16.40;99.90
24444;DHT22;13346;50.984;5.822;2022-10-18T16:01:33;16.40;99.90
24444;DHT22;13346;50.984;5.822;2022-10-18T16:04:04;16.30;99.90
24444;DHT22;13346;50.984;5.822;2022-10-18T16:06:35;16.30;99.90
24444;DHT22;13346;50.984;5.822;2022-10-18T16:09:03;16.20;99.90
24444;DHT22;13346;50.984;5.822;2022-10-18T16:11:30;16.00;99.90
24444;DHT22;13346;50.984;5.822;2022-10-18T16:13:57;15.80;99.90
24444;DHT22;13346;50.984;5.822;2022-10-18T16:16:26;15.50;99.90
24444;DHT22;13346;50.984;5.822;2022-10-18T16:18:55;15.30;99.90
24444;DHT22;13346;50.984;5.822;2022-10-18T16:21:25;15.10;99.90
24444;DHT22;13346;50.984;5.822;2022-10-18T16:23:53;14.90;99.90